sensor_id;sensor_type;location;lat;lon;timestamp;P1;durP1;ratioP1;P2;durP2;ratioP2
19643;SDS011;9970;-36.854;174.870;2023-07-16T00:00:21;5.57;;;3.20;;
19643;SDS011;9970;-36.854;174.870;2023-07-16T00:02:54;7.77;;;3.30;;
19643;SDS011;9970;-36.854;174.870;2023-07-16T00:05:27;16.87;;;3.53;;
19643;SDS011;9970;-36.854;174.870;2023-07-16T00:08:04;10.23;;;3.07;;
19643;SDS011;9970;-36.854;174.870;2023-07-16T00:10:44;9.20;;;3.17;;
19643;SDS011;9970;-36.854;174.870;2023-07-16T00:13:17;13.73;;;3.53;;
19643;SDS011;9970;-36.854;174.870;2023-07-16T00:15:50;12.80;;;4.63;;
19643;SDS011;9970;-36.854;174.870;2023-07-16T00:18:23;6.03;;;3.43;;
19643;SDS011;9970;-36.854;174.870;2023-07-16T00:21:01;8.17;;;2.90;;
19643;SDS011;9970;-36.854;174.870;2023-07-16T00:23:34;3.17;;;2.30;;
19643;SDS011;9970;-36.854;174.870;2023-07-16T00:26:07;18.57;;;3.20;;
19643;SDS011;9970;-36.854;174.870;2023-07-16T00:28:41;13.10;;;3.20;;
19643;SDS011;9970;-36.854;174.870;2023-07-16T00:31:14;8.43;;;2.30;;
19643;SDS011;9970;-36.854;174.870;2023-07-16T00:33:47;5.03;;;2.60;;
19643;SDS011;9970;-36.854;174.870;2023-07-16T00:36:20;16.13;;;2.83;;
19643;SDS011;9970;-36.854;174.870;2023-07-16T00:38:52;3.03;;;2.70;;
19643;SDS011;9970;-36.854;174.870;2023-07-16T00:41:26;7.10;;;2.57;;
19643;SDS011;9970;-36.854;174.870;2023-07-16T00:43:59;5.47;;;3.80;;
19643;SDS011;9970;-36.854;174.870;2023-07-16T00:46:32;4.60;;;2.90;;
19643;SDS011;9970;-36.854;174.870;2023-07-16T00:49:05;6.10;;;3.27;;
19643;SDS011;9970;-36.854;174.870;2023-07-16T00:51:45;11.60;;;3.07;;
19643;SDS011;9970;-36.854;174.870;2023-07-16T00:54:14;13.87;;;3.10;;
19643;SDS011;9970;-36.854;174.870;2023-07-16T00:56:47;3.50;;;2.60;;
19643;SDS011;9970;-36.854;174.870;2023-07-16T00:59:20;7.23;;;2.73;;
19643;SDS011;9970;-36.854;174.870;2023-07-16T01:01:53;16.93;;;2.20;;
19643;SDS011;9970;-36.854;174.870;2023-07-16T01:04:26;5.83;;;2.87;;
19643;SDS011;9970;-36.854;174.870;2023-07-16T01:07:00;14.50;;;4.00;;
19643;SDS011;9970;-36.854;174.870;2023-07-16T01:09:34;5.13;;;3.20;;
19643;SDS011;9970;-36.854;174.870;2023-07-16T01:12:09;4.63;;;2.10;;
19643;SDS011;9970;-36.854;174.870;2023-07-16T01:14:43;5.73;;;2.50;;
19643;SDS011;9970;-36.854;174.870;2023-07-16T01:17:16;6.30;;;2.27;;
19643;SDS011;9970;-36.854;174.870;2023-07-16T01:19:49;6.90;;;3.07;;
19643;SDS011;9970;-36.854;174.870;2023-07-16T01:28:05;3.67;;;2.40;;
19643;SDS011;9970;-36.854;174.870;2023-07-16T01:30:39;13.80;;;3.93;;
19643;SDS011;9970;-36.854;174.870;2023-07-16T01:33:13;3.73;;;2.57;;
19643;SDS011;9970;-36.854;174.870;2023-07-16T01:35:49;8.17;;;2.97;;
19643;SDS011;9970;-36.854;174.870;2023-07-16T01:38:23;2.90;;;2.50;;
19643;SDS011;9970;-36.854;174.870;2023-07-16T01:40:56;13.23;;;3.10;;
19643;SDS011;9970;-36.854;174.870;2023-07-16T01:43:29;6.10;;;2.13;;
19643;SDS011;9970;-36.854;174.870;2023-07-16T01:46:03;8.60;;;3.27;;
19643;SDS011;9970;-36.854;174.870;2023-07-16T01:48:36;4.87;;;3.03;;
19643;SDS011;9970;-36.854;174.870;2023-07-16T01:51:10;6.20;;;2.80;;
19643;SDS011;9970;-36.854;174.870;2023-07-16T01:53:46;6.80;;;3.27;;
19643;SDS011;9970;-36.854;174.870;2023-07-16T01:56:19;6.73;;;3.20;;
19643;SDS011;9970;-36.854;174.870;2023-07-16T01:58:52;10.27;;;3.33;;
19643;SDS011;9970;-36.854;174.870;2023-07-16T02:01:25;8.13;;;3.40;;
19643;SDS011;9970;-36.854;174.870;2023-07-16T02:03:58;9.00;;;3.17;;
19643;SDS011;9970;-36.854;174.870;2023-07-16T02:06:31;3.83;;;2.30;;
19643;SDS011;9970;-36.854;174.870;2023-07-16T02:09:06;2.80;;;2.60;;
19643;SDS011;9970;-36.854;174.870;2023-07-16T02:11:39;15.47;;;3.03;;
19643;SDS011;9970;-36.854;174.870;2023-07-16T02:14:12;8.47;;;3.23;;
19643;SDS011;9970;-36.854;174.870;2023-07-16T02:16:45;4.23;;;2.90;;
19643;SDS011;9970;-36.854;174.870;2023-07-16T02:19:18;4.10;;;2.80;;
19643;SDS011;9970;-36.854;174.870;2023-07-16T02:21:51;8.20;;;3.00;;
19643;SDS011;9970;-36.854;174.870;2023-07-16T02:24:24;5.87;;;3.20;;
19643;SDS011;9970;-36.854;174.870;2023-07-16T02:26:57;5.17;;;3.03;;
19643;SDS011;9970;-36.854;174.870;2023-07-16T02:29:31;15.60;;;4.47;;
19643;SDS011;9970;-36.854;174.870;2023-07-16T02:32:08;4.67;;;2.87;;
19643;SDS011;9970;-36.854;174.870;2023-07-16T02:34:42;9.77;;;3.30;;
19643;SDS011;9970;-36.854;174.870;2023-07-16T02:37:15;9.00;;;3.10;;
19643;SDS011;9970;-36.854;174.870;2023-07-16T02:39:48;11.73;;;3.30;;
19643;SDS011;9970;-36.854;174.870;2023-07-16T02:42:27;4.73;;;3.10;;
19643;SDS011;9970;-36.854;174.870;2023-07-16T02:45:03;5.50;;;2.67;;
19643;SDS011;9970;-36.854;174.870;2023-07-16T02:47:37;4.33;;;2.90;;
19643;SDS011;9970;-36.854;174.870;2023-07-16T02:50:10;10.03;;;4.30;;
19643;SDS011;9970;-36.854;174.870;2023-07-16T02:52:43;3.90;;;2.47;;
19643;SDS011;9970;-36.854;174.870;2023-07-16T02:55:16;9.63;;;3.93;;
19643;SDS011;9970;-36.854;174.870;2023-07-16T02:57:49;4.40;;;2.67;;
19643;SDS011;9970;-36.854;174.870;2023-07-16T03:00:22;8.40;;;3.93;;
19643;SDS011;9970;-36.854;174.870;2023-07-16T03:02:55;7.60;;;3.10;;
19643;SDS011;9970;-36.854;174.870;2023-07-16T03:05:32;5.13;;;3.43;;
19643;SDS011;9970;-36.854;174.870;2023-07-16T03:08:05;13.87;;;4.97;;
19643;SDS011;9970;-36.854;174.870;2023-07-16T03:10:38;6.13;;;3.67;;
19643;SDS011;9970;-36.854;174.870;2023-07-16T03:13:11;7.60;;;3.17;;
19643;SDS011;9970;-36.854;174.870;2023-07-16T03:15:44;9.73;;;4.10;;
19643;SDS011;9970;-36.854;174.870;2023-07-16T03:18:20;12.00;;;2.83;;
19643;SDS011;9970;-36.854;174.870;2023-07-16T03:20:53;15.33;;;3.57;;
19643;SDS011;9970;-36.854;174.870;2023-07-16T03:23:26;9.67;;;2.90;;
19643;SDS011;9970;-36.854;174.870;2023-07-16T03:25:59;13.17;;;3.57;;
19643;SDS011;9970;-36.854;174.870;2023-07-16T03:28:32;22.43;;;5.00;;
19643;SDS011;9970;-36.854;174.870;2023-07-16T03:31:05;11.47;;;3.30;;
19643;SDS011;9970;-36.854;174.870;2023-07-16T03:33:39;5.73;;;2.53;;
19643;SDS011;9970;-36.854;174.870;2023-07-16T03:36:12;10.20;;;3.50;;
19643;SDS011;9970;-36.854;174.870;2023-07-16T03:38:45;11.50;;;3.57;;
19643;SDS011;9970;-36.854;174.870;2023-07-16T03:41:18;7.50;;;2.73;;
19643;SDS011;9970;-36.854;174.870;2023-07-16T03:43:52;12.53;;;3.20;;
19643;SDS011;9970;-36.854;174.870;2023-07-16T03:46:24;8.13;;;3.03;;
19643;SDS011;9970;-36.854;174.870;2023-07-16T03:48:57;11.00;;;3.17;;
19643;SDS011;9970;-36.854;174.870;2023-07-16T03:51:30;5.83;;;2.90;;
19643;SDS011;9970;-36.854;174.870;2023-07-16T03:54:03;6.50;;;3.10;;
19643;SDS011;9970;-36.854;174.870;2023-07-16T03:56:36;9.13;;;3.93;;
19643;SDS011;9970;-36.854;174.870;2023-07-16T03:59:09;7.13;;;3.37;;
19643;SDS011;9970;-36.854;174.870;2023-07-16T04:01:42;3.03;;;2.67;;
19643;SDS011;9970;-36.854;174.870;2023-07-16T04:04:18;4.00;;;2.40;;
19643;SDS011;9970;-36.854;174.870;2023-07-16T04:06:51;12.10;;;3.80;;
19643;SDS011;9970;-36.854;174.870;2023-07-16T04:09:23;8.47;;;3.37;;
19643;SDS011;9970;-36.854;174.870;2023-07-16T04:11:56;9.17;;;3.13;;
19643;SDS011;9970;-36.854;174.870;2023-07-16T04:14:29;9.33;;;3.93;;
19643;SDS011;9970;-36.854;174.870;2023-07-16T04:17:02;6.43;;;2.73;;
19643;SDS011;9970;-36.854;174.870;2023-07-16T04:19:38;10.40;;;3.20;;
19643;SDS011;9970;-36.854;174.870;2023-07-16T04:22:11;4.93;;;3.20;;
19643;SDS011;9970;-36.854;174.870;2023-07-16T04:24:44;9.60;;;3.43;;
19643;SDS011;9970;-36.854;174.870;2023-07-16T04:27:19;5.70;;;3.37;;
19643;SDS011;9970;-36.854;174.870;2023-07-16T04:29:52;12.57;;;3.87;;
19643;SDS011;9970;-36.854;174.870;2023-07-16T04:32:25;9.47;;;4.10;;
19643;SDS011;9970;-36.854;174.870;2023-07-16T04:34:58;11.20;;;3.47;;
19643;SDS011;9970;-36.854;174.870;2023-07-16T04:37:34;5.13;;;3.80;;
19643;SDS011;9970;-36.854;174.870;2023-07-16T04:40:08;5.80;;;3.37;;
19643;SDS011;9970;-36.854;174.870;2023-07-16T04:42:41;17.80;;;4.20;;
19643;SDS011;9970;-36.854;174.870;2023-07-16T04:45:18;4.80;;;3.80;;
19643;SDS011;9970;-36.854;174.870;2023-07-16T04:47:51;15.13;;;4.23;;
19643;SDS011;9970;-36.854;174.870;2023-07-16T04:50:24;9.00;;;4.03;;
19643;SDS011;9970;-36.854;174.870;2023-07-16T04:53:01;11.20;;;5.30;;
19643;SDS011;9970;-36.854;174.870;2023-07-16T04:55:37;18.07;;;5.67;;
19643;SDS011;9970;-36.854;174.870;2023-07-16T04:58:11;5.93;;;3.30;;
19643;SDS011;9970;-36.854;174.870;2023-07-16T05:00:44;10.70;;;4.97;;
19643;SDS011;9970;-36.854;174.870;2023-07-16T05:03:17;12.07;;;5.00;;
19643;SDS011;9970;-36.854;174.870;2023-07-16T05:05:51;13.57;;;4.90;;
19643;SDS011;9970;-36.854;174.870;2023-07-16T05:08:24;10.30;;;4.23;;
19643;SDS011;9970;-36.854;174.870;2023-07-16T05:10:57;18.17;;;4.70;;
19643;SDS011;9970;-36.854;174.870;2023-07-16T05:13:30;13.43;;;4.43;;
19643;SDS011;9970;-36.854;174.870;2023-07-16T05:16:03;11.20;;;3.97;;
19643;SDS011;9970;-36.854;174.870;2023-07-16T05:18:37;13.73;;;4.30;;
19643;SDS011;9970;-36.854;174.870;2023-07-16T05:21:09;16.10;;;4.67;;
19643;SDS011;9970;-36.854;174.870;2023-07-16T05:23:43;6.50;;;3.53;;
19643;SDS011;9970;-36.854;174.870;2023-07-16T05:26:16;13.87;;;3.27;;
19643;SDS011;9970;-36.854;174.870;2023-07-16T05:28:49;8.63;;;4.60;;
19643;SDS011;9970;-36.854;174.870;2023-07-16T05:31:22;6.57;;;4.60;;
19643;SDS011;9970;-36.854;174.870;2023-07-16T05:33:56;9.10;;;4.43;;
19643;SDS011;9970;-36.854;174.870;2023-07-16T05:36:29;8.57;;;4.90;;
19643;SDS011;9970;-36.854;174.870;2023-07-16T05:39:03;14.70;;;5.43;;
19643;SDS011;9970;-36.854;174.870;2023-07-16T05:41:36;12.70;;;3.93;;
19643;SDS011;9970;-36.854;174.870;2023-07-16T05:44:10;9.93;;;4.07;;
19643;SDS011;9970;-36.854;174.870;2023-07-16T05:46:43;6.83;;;3.70;;
19643;SDS011;9970;-36.854;174.870;2023-07-16T05:49:23;11.07;;;5.63;;
19643;SDS011;9970;-36.854;174.870;2023-07-16T05:52:01;12.20;;;4.63;;
19643;SDS011;9970;-36.854;174.870;2023-07-16T05:54:35;9.53;;;4.50;;
19643;SDS011;9970;-36.854;174.870;2023-07-16T05:57:08;8.63;;;4.43;;
19643;SDS011;9970;-36.854;174.870;2023-07-16T05:59:41;15.57;;;4.17;;
19643;SDS011;9970;-36.854;174.870;2023-07-16T06:02:13;14.03;;;4.97;;
19643;SDS011;9970;-36.854;174.870;2023-07-16T06:04:46;20.20;;;6.00;;
19643;SDS011;9970;-36.854;174.870;2023-07-16T06:07:19;8.40;;;3.90;;
19643;SDS011;9970;-36.854;174.870;2023-07-16T06:09:52;11.43;;;4.20;;
19643;SDS011;9970;-36.854;174.870;2023-07-16T06:12:25;10.27;;;4.10;;
19643;SDS011;9970;-36.854;174.870;2023-07-16T06:14:58;8.47;;;3.73;;
19643;SDS011;9970;-36.854;174.870;2023-07-16T06:17:31;10.33;;;4.77;;
19643;SDS011;9970;-36.854;174.870;2023-07-16T06:20:04;7.67;;;4.00;;
19643;SDS011;9970;-36.854;174.870;2023-07-16T06:22:38;9.70;;;4.10;;
19643;SDS011;9970;-36.854;174.870;2023-07-16T06:25:11;10.23;;;3.60;;
19643;SDS011;9970;-36.854;174.870;2023-07-16T06:27:44;10.63;;;4.10;;
19643;SDS011;9970;-36.854;174.870;2023-07-16T06:30:18;24.43;;;4.83;;
19643;SDS011;9970;-36.854;174.870;2023-07-16T06:32:51;8.43;;;4.10;;
19643;SDS011;9970;-36.854;174.870;2023-07-16T06:35:24;9.30;;;3.73;;
19643;SDS011;9970;-36.854;174.870;2023-07-16T06:37:57;13.63;;;3.87;;
19643;SDS011;9970;-36.854;174.870;2023-07-16T06:40:31;8.13;;;3.43;;
19643;SDS011;9970;-36.854;174.870;2023-07-16T06:43:08;25.33;;;5.20;;
19643;SDS011;9970;-36.854;174.870;2023-07-16T06:45:41;12.83;;;3.70;;
19643;SDS011;9970;-36.854;174.870;2023-07-16T06:48:14;22.13;;;5.50;;
19643;SDS011;9970;-36.854;174.870;2023-07-16T06:50:47;11.23;;;3.67;;
19643;SDS011;9970;-36.854;174.870;2023-07-16T06:53:23;7.70;;;3.47;;
19643;SDS011;9970;-36.854;174.870;2023-07-16T06:55:58;14.13;;;3.80;;
19643;SDS011;9970;-36.854;174.870;2023-07-16T06:58:32;10.80;;;4.10;;
19643;SDS011;9970;-36.854;174.870;2023-07-16T07:01:05;14.80;;;3.90;;
19643;SDS011;9970;-36.854;174.870;2023-07-16T07:03:38;17.20;;;3.87;;
19643;SDS011;9970;-36.854;174.870;2023-07-16T07:06:11;20.13;;;4.20;;
19643;SDS011;9970;-36.854;174.870;2023-07-16T07:08:45;13.10;;;4.20;;
19643;SDS011;9970;-36.854;174.870;2023-07-16T07:11:18;13.43;;;3.60;;
19643;SDS011;9970;-36.854;174.870;2023-07-16T07:13:55;8.73;;;3.50;;
19643;SDS011;9970;-36.854;174.870;2023-07-16T07:16:27;10.23;;;4.00;;
19643;SDS011;9970;-36.854;174.870;2023-07-16T07:19:00;26.83;;;4.23;;
19643;SDS011;9970;-36.854;174.870;2023-07-16T07:21:34;6.00;;;3.30;;
19643;SDS011;9970;-36.854;174.870;2023-07-16T07:24:07;11.57;;;4.43;;
19643;SDS011;9970;-36.854;174.870;2023-07-16T07:26:40;13.10;;;3.83;;
19643;SDS011;9970;-36.854;174.870;2023-07-16T07:29:17;12.40;;;5.10;;
19643;SDS011;9970;-36.854;174.870;2023-07-16T07:31:50;10.87;;;3.67;;
19643;SDS011;9970;-36.854;174.870;2023-07-16T07:34:23;7.27;;;3.30;;
19643;SDS011;9970;-36.854;174.870;2023-07-16T07:36:56;7.40;;;3.73;;
19643;SDS011;9970;-36.854;174.870;2023-07-16T07:39:30;10.93;;;3.40;;
19643;SDS011;9970;-36.854;174.870;2023-07-16T07:42:03;13.53;;;3.53;;
19643;SDS011;9970;-36.854;174.870;2023-07-16T07:44:37;11.43;;;3.47;;
19643;SDS011;9970;-36.854;174.870;2023-07-16T07:47:10;12.90;;;3.40;;
19643;SDS011;9970;-36.854;174.870;2023-07-16T07:49:43;9.10;;;4.33;;
19643;SDS011;9970;-36.854;174.870;2023-07-16T07:52:16;8.00;;;3.23;;
19643;SDS011;9970;-36.854;174.870;2023-07-16T07:54:49;16.93;;;4.00;;
19643;SDS011;9970;-36.854;174.870;2023-07-16T07:57:22;10.00;;;3.73;;
19643;SDS011;9970;-36.854;174.870;2023-07-16T07:59:55;14.00;;;3.77;;
19643;SDS011;9970;-36.854;174.870;2023-07-16T08:02:28;3.57;;;2.83;;
19643;SDS011;9970;-36.854;174.870;2023-07-16T08:05:01;11.83;;;5.60;;
19643;SDS011;9970;-36.854;174.870;2023-07-16T08:07:34;10.50;;;4.33;;
19643;SDS011;9970;-36.854;174.870;2023-07-16T08:10:07;4.00;;;2.83;;
19643;SDS011;9970;-36.854;174.870;2023-07-16T08:12:41;10.03;;;4.23;;
19643;SDS011;9970;-36.854;174.870;2023-07-16T08:15:14;17.87;;;5.00;;
19643;SDS011;9970;-36.854;174.870;2023-07-16T08:17:47;15.47;;;4.63;;
19643;SDS011;9970;-36.854;174.870;2023-07-16T08:20:21;10.67;;;3.60;;
19643;SDS011;9970;-36.854;174.870;2023-07-16T08:22:54;5.50;;;3.10;;
19643;SDS011;9970;-36.854;174.870;2023-07-16T08:25:27;8.00;;;4.17;;
19643;SDS011;9970;-36.854;174.870;2023-07-16T08:28:01;19.47;;;4.20;;
19643;SDS011;9970;-36.854;174.870;2023-07-16T08:30:34;9.10;;;4.33;;
19643;SDS011;9970;-36.854;174.870;2023-07-16T08:33:07;5.00;;;3.80;;
19643;SDS011;9970;-36.854;174.870;2023-07-16T08:35:44;8.30;;;4.87;;
19643;SDS011;9970;-36.854;174.870;2023-07-16T08:38:17;8.50;;;4.53;;
19643;SDS011;9970;-36.854;174.870;2023-07-16T08:40:50;8.30;;;5.67;;
19643;SDS011;9970;-36.854;174.870;2023-07-16T08:43:23;8.30;;;4.60;;
19643;SDS011;9970;-36.854;174.870;2023-07-16T08:45:57;7.07;;;4.77;;
19643;SDS011;9970;-36.854;174.870;2023-07-16T08:48:31;12.13;;;4.90;;
19643;SDS011;9970;-36.854;174.870;2023-07-16T08:51:09;8.03;;;5.50;;
19643;SDS011;9970;-36.854;174.870;2023-07-16T08:53:44;7.73;;;4.00;;
19643;SDS011;9970;-36.854;174.870;2023-07-16T08:56:17;18.73;;;6.03;;
19643;SDS011;9970;-36.854;174.870;2023-07-16T08:58:50;5.33;;;3.80;;
19643;SDS011;9970;-36.854;174.870;2023-07-16T09:01:26;13.07;;;4.23;;
19643;SDS011;9970;-36.854;174.870;2023-07-16T09:03:59;10.90;;;4.57;;
19643;SDS011;9970;-36.854;174.870;2023-07-16T09:06:32;16.00;;;3.67;;
19643;SDS011;9970;-36.854;174.870;2023-07-16T09:09:05;6.67;;;4.60;;
19643;SDS011;9970;-36.854;174.870;2023-07-16T09:11:45;22.93;;;5.13;;
19643;SDS011;9970;-36.854;174.870;2023-07-16T09:14:14;7.37;;;3.57;;
19643;SDS011;9970;-36.854;174.870;2023-07-16T09:16:48;8.47;;;4.73;;
19643;SDS011;9970;-36.854;174.870;2023-07-16T09:19:21;8.40;;;4.00;;
19643;SDS011;9970;-36.854;174.870;2023-07-16T09:21:56;8.10;;;4.43;;
19643;SDS011;9970;-36.854;174.870;2023-07-16T09:24:29;6.50;;;3.67;;
19643;SDS011;9970;-36.854;174.870;2023-07-16T09:27:02;6.27;;;3.77;;
19643;SDS011;9970;-36.854;174.870;2023-07-16T09:29:37;10.93;;;3.83;;
19643;SDS011;9970;-36.854;174.870;2023-07-16T09:32:10;12.30;;;4.17;;
19643;SDS011;9970;-36.854;174.870;2023-07-16T09:34:44;13.50;;;4.63;;
19643;SDS011;9970;-36.854;174.870;2023-07-16T09:37:24;14.33;;;4.67;;
19643;SDS011;9970;-36.854;174.870;2023-07-16T09:39:59;13.00;;;4.33;;
19643;SDS011;9970;-36.854;174.870;2023-07-16T09:42:32;10.13;;;5.17;;
19643;SDS011;9970;-36.854;174.870;2023-07-16T09:45:17;13.47;;;5.23;;
19643;SDS011;9970;-36.854;174.870;2023-07-16T09:47:50;13.33;;;4.60;;
19643;SDS011;9970;-36.854;174.870;2023-07-16T09:50:23;8.60;;;4.37;;
19643;SDS011;9970;-36.854;174.870;2023-07-16T09:53:01;15.43;;;4.43;;
19643;SDS011;9970;-36.854;174.870;2023-07-16T09:55:37;19.63;;;4.10;;
19643;SDS011;9970;-36.854;174.870;2023-07-16T09:58:10;5.73;;;3.87;;
19643;SDS011;9970;-36.854;174.870;2023-07-16T10:00:45;14.60;;;4.50;;
19643;SDS011;9970;-36.854;174.870;2023-07-16T10:03:18;14.20;;;4.70;;
19643;SDS011;9970;-36.854;174.870;2023-07-16T10:06:05;17.27;;;5.70;;
19643;SDS011;9970;-36.854;174.870;2023-07-16T10:08:38;19.13;;;5.07;;
19643;SDS011;9970;-36.854;174.870;2023-07-16T10:11:17;10.30;;;4.47;;
19643;SDS011;9970;-36.854;174.870;2023-07-16T10:13:50;18.80;;;4.33;;
19643;SDS011;9970;-36.854;174.870;2023-07-16T10:16:23;16.53;;;3.97;;
19643;SDS011;9970;-36.854;174.870;2023-07-16T10:18:57;15.00;;;4.27;;
19643;SDS011;9970;-36.854;174.870;2023-07-16T10:21:36;9.77;;;5.23;;
19643;SDS011;9970;-36.854;174.870;2023-07-16T10:24:05;18.00;;;5.20;;
19643;SDS011;9970;-36.854;174.870;2023-07-16T10:26:40;12.93;;;4.43;;
19643;SDS011;9970;-36.854;174.870;2023-07-16T10:29:13;17.10;;;5.13;;
19643;SDS011;9970;-36.854;174.870;2023-07-16T10:31:46;11.77;;;4.47;;
19643;SDS011;9970;-36.854;174.870;2023-07-16T10:34:24;18.30;;;4.83;;
19643;SDS011;9970;-36.854;174.870;2023-07-16T10:36:57;14.93;;;5.50;;
19643;SDS011;9970;-36.854;174.870;2023-07-16T10:39:37;14.83;;;4.10;;
19643;SDS011;9970;-36.854;174.870;2023-07-16T10:42:23;13.47;;;3.87;;
19643;SDS011;9970;-36.854;174.870;2023-07-16T10:45:02;15.30;;;4.37;;
19643;SDS011;9970;-36.854;174.870;2023-07-16T10:47:50;10.33;;;3.57;;
19643;SDS011;9970;-36.854;174.870;2023-07-16T10:50:18;8.57;;;3.70;;
19643;SDS011;9970;-36.854;174.870;2023-07-16T10:52:52;3.83;;;3.23;;
19643;SDS011;9970;-36.854;174.870;2023-07-16T10:55:26;6.93;;;2.97;;
19643;SDS011;9970;-36.854;174.870;2023-07-16T10:58:03;7.40;;;3.27;;
19643;SDS011;9970;-36.854;174.870;2023-07-16T11:00:37;16.17;;;4.80;;
19643;SDS011;9970;-36.854;174.870;2023-07-16T11:03:17;4.83;;;3.20;;
19643;SDS011;9970;-36.854;174.870;2023-07-16T11:05:50;8.30;;;4.50;;
19643;SDS011;9970;-36.854;174.870;2023-07-16T11:08:23;24.13;;;4.60;;
19643;SDS011;9970;-36.854;174.870;2023-07-16T11:10:56;15.30;;;4.43;;
19643;SDS011;9970;-36.854;174.870;2023-07-16T11:13:34;6.83;;;4.17;;
19643;SDS011;9970;-36.854;174.870;2023-07-16T11:16:10;10.57;;;3.27;;
19643;SDS011;9970;-36.854;174.870;2023-07-16T11:18:44;6.07;;;3.27;;
19643;SDS011;9970;-36.854;174.870;2023-07-16T11:21:22;9.60;;;3.37;;
19643;SDS011;9970;-36.854;174.870;2023-07-16T11:23:56;16.37;;;5.23;;
19643;SDS011;9970;-36.854;174.870;2023-07-16T11:26:31;12.73;;;3.17;;
19643;SDS011;9970;-36.854;174.870;2023-07-16T11:29:13;11.00;;;3.57;;
19643;SDS011;9970;-36.854;174.870;2023-07-16T11:31:50;8.60;;;3.67;;
19643;SDS011;9970;-36.854;174.870;2023-07-16T11:34:23;7.53;;;3.13;;
19643;SDS011;9970;-36.854;174.870;2023-07-16T11:37:06;9.17;;;3.50;;
19643;SDS011;9970;-36.854;174.870;2023-07-16T11:39:40;9.10;;;3.63;;
19643;SDS011;9970;-36.854;174.870;2023-07-16T11:42:22;6.33;;;3.13;;
19643;SDS011;9970;-36.854;174.870;2023-07-16T11:44:52;6.67;;;3.23;;
19643;SDS011;9970;-36.854;174.870;2023-07-16T11:47:25;13.63;;;4.90;;
19643;SDS011;9970;-36.854;174.870;2023-07-16T11:50:02;8.57;;;3.53;;
19643;SDS011;9970;-36.854;174.870;2023-07-16T11:52:35;10.87;;;3.77;;
19643;SDS011;9970;-36.854;174.870;2023-07-16T11:55:09;6.53;;;3.63;;
19643;SDS011;9970;-36.854;174.870;2023-07-16T11:57:42;9.57;;;3.30;;
19643;SDS011;9970;-36.854;174.870;2023-07-16T12:00:15;7.50;;;4.20;;
19643;SDS011;9970;-36.854;174.870;2023-07-16T12:02:52;10.10;;;3.80;;
19643;SDS011;9970;-36.854;174.870;2023-07-16T12:05:26;12.50;;;3.37;;
19643;SDS011;9970;-36.854;174.870;2023-07-16T12:08:00;16.60;;;3.87;;
19643;SDS011;9970;-36.854;174.870;2023-07-16T12:10:35;8.30;;;3.93;;
19643;SDS011;9970;-36.854;174.870;2023-07-16T12:13:08;10.53;;;4.17;;
19643;SDS011;9970;-36.854;174.870;2023-07-16T12:15:41;8.10;;;3.00;;
19643;SDS011;9970;-36.854;174.870;2023-07-16T12:18:14;4.07;;;2.97;;
19643;SDS011;9970;-36.854;174.870;2023-07-16T12:20:49;16.40;;;4.83;;
19643;SDS011;9970;-36.854;174.870;2023-07-16T12:23:22;4.03;;;2.67;;
19643;SDS011;9970;-36.854;174.870;2023-07-16T12:26:03;9.40;;;3.43;;
19643;SDS011;9970;-36.854;174.870;2023-07-16T12:28:34;5.10;;;2.97;;
19643;SDS011;9970;-36.854;174.870;2023-07-16T12:31:12;7.80;;;2.70;;
19643;SDS011;9970;-36.854;174.870;2023-07-16T12:33:46;7.23;;;2.47;;
19643;SDS011;9970;-36.854;174.870;2023-07-16T12:36:20;8.57;;;3.20;;
19643;SDS011;9970;-36.854;174.870;2023-07-16T12:38:53;4.43;;;2.77;;
19643;SDS011;9970;-36.854;174.870;2023-07-16T12:41:30;4.20;;;2.00;;
19643;SDS011;9970;-36.854;174.870;2023-07-16T12:44:03;9.80;;;3.30;;
19643;SDS011;9970;-36.854;174.870;2023-07-16T12:46:53;16.00;;;6.10;;
19643;SDS011;9970;-36.854;174.870;2023-07-16T12:49:30;9.43;;;1.90;;
19643;SDS011;9970;-36.854;174.870;2023-07-16T12:52:03;4.97;;;2.30;;
19643;SDS011;9970;-36.854;174.870;2023-07-16T12:54:37;2.23;;;1.90;;
19643;SDS011;9970;-36.854;174.870;2023-07-16T12:57:19;2.20;;;2.00;;
19643;SDS011;9970;-36.854;174.870;2023-07-16T12:59:55;6.60;;;2.43;;
19643;SDS011;9970;-36.854;174.870;2023-07-16T13:02:48;8.23;;;2.27;;
19643;SDS011;9970;-36.854;174.870;2023-07-16T13:05:34;5.23;;;2.20;;
19643;SDS011;9970;-36.854;174.870;2023-07-16T13:08:07;4.67;;;2.33;;
19643;SDS011;9970;-36.854;174.870;2023-07-16T13:10:40;5.83;;;2.80;;
19643;SDS011;9970;-36.854;174.870;2023-07-16T13:13:13;10.10;;;2.30;;
19643;SDS011;9970;-36.854;174.870;2023-07-16T13:15:52;6.10;;;2.00;;
19643;SDS011;9970;-36.854;174.870;2023-07-16T13:18:25;16.10;;;3.40;;
19643;SDS011;9970;-36.854;174.870;2023-07-16T13:21:07;4.80;;;3.37;;
19643;SDS011;9970;-36.854;174.870;2023-07-16T13:23:40;7.00;;;2.50;;
19643;SDS011;9970;-36.854;174.870;2023-07-16T13:26:13;2.80;;;2.30;;
19643;SDS011;9970;-36.854;174.870;2023-07-16T13:29:00;2.30;;;2.20;;
19643;SDS011;9970;-36.854;174.870;2023-07-16T13:31:33;7.23;;;3.30;;
19643;SDS011;9970;-36.854;174.870;2023-07-16T13:34:05;10.57;;;2.50;;
19643;SDS011;9970;-36.854;174.870;2023-07-16T13:36:38;5.20;;;2.60;;
19643;SDS011;9970;-36.854;174.870;2023-07-16T13:39:13;4.20;;;1.97;;
19643;SDS011;9970;-36.854;174.870;2023-07-16T13:41:46;4.53;;;1.87;;
19643;SDS011;9970;-36.854;174.870;2023-07-16T13:44:29;3.40;;;2.07;;
19643;SDS011;9970;-36.854;174.870;2023-07-16T13:47:09;5.30;;;2.17;;
19643;SDS011;9970;-36.854;174.870;2023-07-16T13:49:54;3.30;;;1.97;;
19643;SDS011;9970;-36.854;174.870;2023-07-16T13:52:27;4.70;;;2.40;;
19643;SDS011;9970;-36.854;174.870;2023-07-16T13:55:00;3.90;;;2.10;;
19643;SDS011;9970;-36.854;174.870;2023-07-16T13:57:41;6.70;;;2.40;;
19643;SDS011;9970;-36.854;174.870;2023-07-16T14:00:15;1.83;;;1.67;;
19643;SDS011;9970;-36.854;174.870;2023-07-16T14:02:48;14.03;;;2.17;;
19643;SDS011;9970;-36.854;174.870;2023-07-16T14:05:43;2.50;;;2.30;;
19643;SDS011;9970;-36.854;174.870;2023-07-16T14:08:06;3.83;;;1.90;;
19643;SDS011;9970;-36.854;174.870;2023-07-16T14:10:39;2.77;;;1.90;;
19643;SDS011;9970;-36.854;174.870;2023-07-16T14:13:13;6.30;;;1.90;;
19643;SDS011;9970;-36.854;174.870;2023-07-16T14:15:46;6.00;;;2.83;;
19643;SDS011;9970;-36.854;174.870;2023-07-16T14:18:25;2.90;;;1.93;;
19643;SDS011;9970;-36.854;174.870;2023-07-16T14:20:58;5.20;;;1.90;;
19643;SDS011;9970;-36.854;174.870;2023-07-16T14:23:41;2.03;;;1.90;;
19643;SDS011;9970;-36.854;174.870;2023-07-16T14:26:13;3.10;;;1.80;;
19643;SDS011;9970;-36.854;174.870;2023-07-16T14:28:46;4.47;;;1.93;;
19643;SDS011;9970;-36.854;174.870;2023-07-16T14:31:20;6.47;;;2.00;;
19643;SDS011;9970;-36.854;174.870;2023-07-16T14:33:52;3.43;;;1.70;;
19643;SDS011;9970;-36.854;174.870;2023-07-16T14:36:25;6.57;;;2.00;;
19643;SDS011;9970;-36.854;174.870;2023-07-16T14:38:59;2.23;;;1.50;;
19643;SDS011;9970;-36.854;174.870;2023-07-16T14:41:33;5.60;;;2.23;;
19643;SDS011;9970;-36.854;174.870;2023-07-16T14:44:06;4.27;;;2.00;;
19643;SDS011;9970;-36.854;174.870;2023-07-16T14:46:45;11.37;;;2.90;;
19643;SDS011;9970;-36.854;174.870;2023-07-16T14:49:14;3.20;;;1.97;;
19643;SDS011;9970;-36.854;174.870;2023-07-16T14:51:46;5.80;;;2.33;;
19643;SDS011;9970;-36.854;174.870;2023-07-16T14:54:19;3.13;;;2.70;;
19643;SDS011;9970;-36.854;174.870;2023-07-16T14:56:53;6.30;;;2.30;;
19643;SDS011;9970;-36.854;174.870;2023-07-16T14:59:26;4.33;;;2.07;;
19643;SDS011;9970;-36.854;174.870;2023-07-16T15:01:59;8.37;;;2.50;;